| time (UTC) | temp C | wind direction | speed KPH | gust KPH | rain 1hr cm | rain 24hr cm | rain mn cm | humidity % | barometer mb |
| 20260831145503 | 18 | 276 | 17.7 | 27.4 | 0.00 | 1.45 | 0.43 | 80 | 1011.4 |
| 20260831145003 | 18 | 276 | 17.7 | 27.4 | 0.00 | 1.45 | 0.43 | 79 | 1011.4 |
| 20260831144524 | 18 | 274 | 17.7 | 27.4 | 0.00 | 1.45 | 0.43 | 80 | 1011.3 |
| 20260831144024 | 18 | 274 | 19.3 | 27.4 | 0.00 | 1.45 | 0.43 | 79 | 1011.2 |
| 20260831143503 | 18 | 275 | 19.3 | 29.0 | 0.00 | 1.45 | 0.43 | 78 | 1011.2 |
| 20260831143003 | 18 | 276 | 19.3 | 29.0 | 0.00 | 1.45 | 0.43 | 79 | 1011.1 |
| 20260831142503 | 18 | 277 | 17.7 | 27.4 | 0.00 | 1.45 | 0.43 | 80 | 1011.0 |
| 20260831142003 | 18 | 277 | 17.7 | 27.4 | 0.00 | 1.45 | 0.43 | 80 | 1011.0 |
| 20260831141503 | 18 | 282 | 16.1 | 27.4 | 0.00 | 1.45 | 0.43 | 80 | 1011.0 |
| 20260831141003 | 18 | 283 | 14.5 | 22.5 | 0.00 | 1.45 | 0.43 | 77 | 1010.9 |
| 20260831140524 | 18 | 284 | 14.5 | 22.5 | 0.00 | 1.45 | 0.43 | 77 | 1011.0 |
| 20260831140024 | 18 | 291 | 14.5 | 24.1 | 0.00 | 1.45 | 0.43 | 78 | 1010.9 |
| 20260831135503 | 18 | 283 | 14.5 | 24.1 | 0.00 | 1.45 | 0.43 | 78 | 1010.8 |
| 20260831135025 | 18 | 280 | 14.5 | 22.5 | 0.00 | 1.45 | 0.43 | 76 | 1010.7 |
| 20260831134503 | 18 | 283 | 16.1 | 24.1 | 0.00 | 1.45 | 0.43 | 77 | 1010.7 |
| 20260831134003 | 18 | 283 | 16.1 | 24.1 | 0.00 | 1.45 | 0.43 | 77 | 1010.8 |
| 20260831133503 | 18 | 287 | 16.1 | 22.5 | 0.00 | 1.45 | 0.43 | 76 | 1010.8 |
| 20260831133024 | 18 | 290 | 16.1 | 24.1 | 0.00 | 1.45 | 0.43 | 78 | 1010.8 |
| 20260831132524 | 18 | 289 | 16.1 | 25.7 | 0.00 | 1.45 | 0.43 | 76 | 1010.7 |
| 20260831132003 | 18 | 287 | 17.7 | 25.7 | 0.00 | 1.45 | 0.43 | 76 | 1010.6 |
| 20260831131503 | 18 | 287 | 17.7 | 27.4 | 0.00 | 1.45 | 0.43 | 75 | 1010.5 |
| 20260831131006 | 18 | 286 | 17.7 | 27.4 | 0.00 | 1.45 | 0.43 | 77 | 1010.4 |
| 20260831130503 | 18 | 285 | 17.7 | 25.7 | 0.00 | 1.45 | 0.43 | 78 | 1010.4 |
| 20260831130024 | 18 | 283 | 16.1 | 25.7 | 0.00 | 1.45 | 0.43 | 77 | 1010.4 |
| 20260831125503 | 18 | 286 | 17.7 | 27.4 | 0.00 | 1.45 | 0.43 | 77 | 1010.2 |
| 20260831125024 | 18 | 289 | 17.7 | 30.6 | 0.00 | 1.45 | 0.43 | 78 | 1010.1 |
| 20260831124503 | 18 | 290 | 19.3 | 30.6 | 0.00 | 1.45 | 0.43 | 78 | 1010.0 |
| 20260831124003 | 18 | 295 | 19.3 | 27.4 | 0.00 | 1.45 | 0.43 | 77 | 1010.0 |
| 20260831123524 | 18 | 294 | 19.3 | 29.0 | 0.00 | 1.45 | 0.43 | 77 | 1009.9 |
| 20260831123003 | 18 | 290 | 19.3 | 30.6 | 0.00 | 1.45 | 0.43 | 80 | 1009.8 |
| 20260831122524 | 18 | 292 | 20.9 | 30.6 | 0.00 | 1.45 | 0.43 | 79 | 1009.8 |
| 20260831122004 | 18 | 290 | 20.9 | 27.4 | 0.00 | 1.45 | 0.43 | 79 | 1009.7 |
| 20260831121524 | 18 | 287 | 19.3 | 27.4 | 0.00 | 1.45 | 0.43 | 82 | 1009.6 |
| 20260831121024 | 18 | 285 | 17.7 | 25.7 | 0.00 | 1.45 | 0.43 | 84 | 1009.6 |
| 20260831120503 | 18 | 289 | 17.7 | 25.7 | 0.00 | 1.45 | 0.43 | 83 | 1009.5 |
| 20260831120003 | 18 | 294 | 17.7 | 25.7 | 0.00 | 1.45 | 0.43 | 81 | 1009.4 |
| 20260831115503 | 18 | 295 | 19.3 | 29.0 | 0.00 | 1.45 | 0.43 | 79 | 1009.5 |
| 20260831115003 | 18 | 292 | 19.3 | 29.0 | 0.00 | 1.45 | 0.43 | 79 | 1009.4 |
| 20260831114503 | 18 | 282 | 20.9 | 33.8 | 0.00 | 1.45 | 0.43 | 83 | 1009.3 |
| 20260831114024 | 18 | 273 | 20.9 | 33.8 | 0.00 | 1.45 | 0.43 | 82 | 1009.4 |
| 20260831113504 | 18 | 270 | 19.3 | 29.0 | 0.00 | 1.45 | 0.43 | 80 | 1009.3 |
| 20260831113003 | 18 | 267 | 17.7 | 29.0 | 0.00 | 1.45 | 0.43 | 79 | 1009.2 |
| 20260831112503 | 18 | 267 | 17.7 | 29.0 | 0.00 | 1.45 | 0.43 | 81 | 1009.2 |
| 20260831112003 | 18 | 266 | 17.7 | 29.0 | 0.00 | 1.45 | 0.43 | 82 | 1009.2 |
| 20260831111503 | 18 | 267 | 17.7 | 27.4 | 0.00 | 1.45 | 0.43 | 80 | 1009.1 |
| 20260831111024 | 18 | 271 | 17.7 | 29.0 | 0.00 | 1.45 | 0.43 | 81 | 1009.1 |
| 20260831110525 | 18 | 268 | 19.3 | 32.2 | 0.00 | 1.45 | 0.43 | 80 | 1009.2 |
| 20260831110003 | 18 | 267 | 20.9 | 32.2 | 0.00 | 1.45 | 0.43 | 79 | 1009.2 |
| 20260831105524 | 18 | 271 | 19.3 | 25.7 | 0.00 | 1.45 | 0.43 | 81 | 1009.3 |
| 20260831105003 | 18 | 273 | 19.3 | 29.0 | 0.00 | 1.45 | 0.43 | 79 | 1009.3 |
| 20260831104503 | 18 | 269 | 19.3 | 27.4 | 0.00 | 1.45 | 0.43 | 81 | 1009.2 |
| 20260831104003 | 18 | 268 | 19.3 | 29.0 | 0.00 | 1.45 | 0.43 | 80 | 1009.1 |
| 20260831103524 | 18 | 270 | 19.3 | 29.0 | 0.00 | 1.45 | 0.43 | 81 | 1009.1 |
| 20260831103003 | 18 | 265 | 20.9 | 32.2 | 0.00 | 1.45 | 0.43 | 80 | 1009.0 |
| 20260831102503 | 18 | 263 | 22.5 | 32.2 | 0.00 | 1.45 | 0.43 | 79 | 1009.0 |
| 20260831102003 | 18 | 263 | 19.3 | 32.2 | 0.00 | 1.45 | 0.43 | 82 | 1009.1 |
| 20260831101503 | 18 | 261 | 17.7 | 27.4 | 0.00 | 1.45 | 0.43 | 85 | 1009.0 |
| 20260831101003 | 18 | 261 | 17.7 | 27.4 | 0.00 | 1.45 | 0.43 | 85 | 1008.9 |
| 20260831100503 | 18 | 262 | 19.3 | 27.4 | 0.00 | 1.45 | 0.43 | 83 | 1008.8 |
| 20260831100024 | 18 | 262 | 19.3 | 27.4 | 0.00 | 1.45 | 0.43 | 83 | 1008.8 |
| 20260831095503 | 18 | 263 | 17.7 | 27.4 | 0.00 | 1.45 | 0.43 | 85 | 1008.9 |
| 20260831095003 | 18 | 262 | 16.1 | 29.0 | 0.00 | 1.45 | 0.43 | 87 | 1008.9 |
| 20260831094503 | 18 | 262 | 17.7 | 29.0 | 0.00 | 1.45 | 0.43 | 89 | 1008.6 |
| 20260831094003 | 18 | 262 | 19.3 | 27.4 | 0.00 | 1.45 | 0.43 | 90 | 1008.5 |
| 20260831093503 | 17 | 261 | 19.3 | 29.0 | 0.00 | 1.45 | 0.43 | 90 | 1008.5 |
| 20260831093024 | 17 | 261 | 19.3 | 29.0 | 0.00 | 1.45 | 0.43 | 89 | 1008.7 |
| 20260831092503 | 17 | 260 | 17.7 | 25.7 | 0.00 | 1.45 | 0.43 | 89 | 1008.7 |
| 20260831092024 | 17 | 260 | 16.1 | 25.7 | 0.00 | 1.45 | 0.43 | 90 | 1008.6 |
| 20260831091503 | 17 | 260 | 16.1 | 24.1 | 0.00 | 1.45 | 0.43 | 91 | 1008.6 |
| 20260831091024 | 17 | 258 | 17.7 | 27.4 | 0.00 | 1.45 | 0.43 | 91 | 1008.3 |
| 20260831090503 | 17 | 256 | 19.3 | 29.0 | 0.00 | 1.45 | 0.43 | 91 | 1008.4 |
| 20260831090003 | 17 | 255 | 19.3 | 29.0 | 0.00 | 1.45 | 0.43 | 91 | 1008.5 |
| 20260831085503 | 17 | 249 | 19.3 | 29.0 | 0.00 | 1.45 | 0.43 | 91 | 1008.5 |
| 20260831085003 | 17 | 247 | 20.9 | 30.6 | 0.00 | 1.45 | 0.43 | 91 | 1008.1 |
| 20260831084503 | 17 | 247 | 19.3 | 30.6 | 0.00 | 1.45 | 0.43 | 91 | 1008.0 |
| 20260831084003 | 17 | 247 | 17.7 | 27.4 | 0.00 | 1.45 | 0.43 | 90 | 1007.9 |
| 20260831083504 | 17 | 250 | 16.1 | 22.5 | 0.00 | 1.45 | 0.43 | 91 | 1008.1 |
| 20260831083003 | 17 | 253 | 16.1 | 24.1 | 0.00 | 1.45 | 0.43 | 91 | 1008.0 |
| 20260831082503 | 17 | 249 | 16.1 | 24.1 | 0.00 | 1.45 | 0.43 | 90 | 1008.1 |
| 20260831082003 | 17 | 248 | 14.5 | 20.9 | 0.00 | 1.45 | 0.43 | 90 | 1008.1 |
| 20260831081503 | 17 | 249 | 14.5 | 24.1 | 0.00 | 1.45 | 0.43 | 90 | 1008.2 |
| 20260831081003 | 17 | 248 | 16.1 | 24.1 | 0.00 | 1.45 | 0.43 | 90 | 1008.3 |
| 20260831080503 | 17 | 251 | 14.5 | 20.9 | 0.00 | 1.45 | 0.43 | 90 | 1008.4 |
| 20260831080003 | 17 | 255 | 11.3 | 19.3 | 0.00 | 1.45 | 0.43 | 90 | 1008.1 |
| 20260831075503 | 17 | 259 | 11.3 | 22.5 | 0.00 | 1.45 | 0.43 | 91 | 1008.0 |
| 20260831075003 | 17 | 260 | 12.9 | 22.5 | 0.00 | 1.45 | 0.43 | 90 | 1008.1 |
| 20260831074524 | 17 | 258 | 12.9 | 20.9 | 0.00 | 1.45 | 0.43 | 90 | 1008.2 |
| 20260831074024 | 17 | 257 | 11.3 | 19.3 | 0.00 | 1.45 | 0.43 | 89 | 1008.4 |
| 20260831073503 | 17 | 258 | 11.3 | 19.3 | 0.00 | 1.45 | 0.43 | 89 | 1008.2 |
| 20260831073003 | 17 | 257 | 9.7 | 17.7 | 0.00 | 1.45 | 0.43 | 90 | 1008.2 |
| 20260831072503 | 17 | 252 | 8.0 | 16.1 | 0.00 | 1.45 | 0.43 | 91 | 1008.2 |
| 20260831072024 | 16 | 253 | 8.0 | 16.1 | 0.00 | 1.45 | 0.43 | 92 | 1008.3 |
| 20260831071503 | 16 | 257 | 3.2 | 12.9 | 0.00 | 1.45 | 0.43 | 96 | 1008.2 |
| 20260831071003 | 15 | 311 | 0.0 | 4.8 | 0.00 | 1.45 | 0.43 | 97 | 1008.4 |
| 20260831070524 | 15 | 0 | 0.0 | 0.0 | 0.00 | 1.45 | 0.43 | 96 | 1008.4 |
| 20260831070003 | 15 | 91 | 0.0 | 4.8 | 0.00 | 1.45 | 0.43 | 96 | 1008.6 |
| 20260831065504 | 15 | 94 | 0.0 | 4.8 | 0.00 | 1.45 | 0.43 | 96 | 1008.7 |
| 20260831065003 | 15 | 95 | 1.6 | 6.4 | 0.00 | 1.45 | 0.43 | 96 | 1008.6 |
| 20260831064503 | 15 | 92 | 1.6 | 6.4 | 0.03 | 1.45 | 0.43 | 96 | 1008.6 |
| 20260831064003 | 15 | 87 | 0.0 | 6.4 | 0.03 | 1.45 | 0.43 | 96 | 1008.7 |
| 20260831063503 | 15 | 0 | 0.0 | 0.0 | 0.03 | 1.45 | 0.43 | 95 | 1008.8 |
| 20260831063003 | 15 | 0 | 0.0 | 0.0 | 0.03 | 1.45 | 0.43 | 96 | 1008.9 |
| 20260831062503 | 15 | 0 | 0.0 | 0.0 | 0.03 | 1.45 | 0.43 | 95 | 1008.9 |
| 20260831062003 | 15 | 0 | 0.0 | 0.0 | 0.03 | 1.45 | 0.43 | 95 | 1008.9 |
| 20260831061503 | 15 | 0 | 0.0 | 0.0 | 0.05 | 1.45 | 0.43 | 95 | 1008.9 |
| 20260831061003 | 15 | 0 | 0.0 | 0.0 | 0.10 | 1.45 | 0.43 | 95 | 1009.0 |
| 20260831060503 | 15 | 0 | 0.0 | 0.0 | 0.15 | 1.45 | 0.43 | 95 | 1009.0 |
| 20260831060024 | 15 | 0 | 0.0 | 0.0 | 0.20 | 1.45 | 0.43 | 95 | 1009.0 |
| 20260831055503 | 15 | 0 | 0.0 | 0.0 | 0.25 | 1.45 | 0.43 | 94 | 1009.1 |
| 20260831055003 | 15 | 0 | 0.0 | 0.0 | 0.33 | 1.45 | 0.43 | 94 | 1009.3 |
| 20260831054503 | 15 | 0 | 0.0 | 0.0 | 0.36 | 1.42 | 0.43 | 93 | 1009.2 |
| 20260831054003 | 16 | 0 | 0.0 | 0.0 | 0.38 | 1.42 | 0.43 | 92 | 1009.2 |
| 20260831053503 | 16 | 230 | 0.0 | 4.8 | 0.41 | 1.42 | 0.43 | 92 | 1009.2 |
| 20260831053003 | 16 | 231 | 3.2 | 8.0 | 0.43 | 1.42 | 0.43 | 91 | 1009.4 |
| 20260831052503 | 16 | 241 | 6.4 | 12.9 | 0.43 | 1.42 | 0.43 | 92 | 1009.5 |
| 20260831052003 | 16 | 251 | 8.0 | 14.5 | 0.43 | 1.42 | 0.43 | 93 | 1009.6 |
| 20260831051524 | 16 | 255 | 8.0 | 14.5 | 0.38 | 1.37 | 0.38 | 95 | 1009.8 |
| 20260831051003 | 16 | 255 | 4.8 | 14.5 | 0.33 | 1.35 | 0.33 | 97 | 1009.8 |
| 20260831050503 | 16 | 257 | 0.0 | 3.2 | 0.30 | 1.30 | 0.30 | 100 | 1009.7 |
| 20260831050003 | 15 | 0 | 0.0 | 0.0 | 0.23 | 1.24 | 0.23 | 97 | 1009.7 |
| 20260831045504 | 15 | 72 | 0.0 | 6.4 | 0.18 | 1.17 | 0.18 | 97 | 1009.6 |
| 20260831045003 | 15 | 86 | 1.6 | 6.4 | 0.10 | 1.09 | 0.10 | 97 | 1009.2 |
| 20260831044503 | 15 | 114 | 3.2 | 9.7 | 0.05 | 1.07 | 0.05 | 97 | 1009.3 |
| 20260831044003 | 15 | 124 | 4.8 | 9.7 | 0.05 | 1.04 | 0.05 | 97 | 1009.4 |
| 20260831043506 | 15 | 128 | 4.8 | 11.3 | 0.03 | 1.02 | 0.03 | 97 | 1009.3 |
| 20260831043024 | 15 | 128 | 6.4 | 11.3 | 0.00 | 0.99 | 0.00 | 97 | 1009.3 |
| 20260831042503 | 15 | 129 | 6.4 | 12.9 | 0.00 | 0.99 | 0.00 | 97 | 1009.2 |
| 20260831042003 | 15 | 130 | 6.4 | 12.9 | 0.00 | 0.99 | 0.00 | 97 | 1009.2 |
| 20260831041503 | 15 | 124 | 6.4 | 11.3 | 0.00 | 0.99 | 0.00 | 97 | 1009.2 |
| 20260831041003 | 15 | 112 | 4.8 | 9.7 | 0.00 | 0.99 | 0.00 | 97 | 1009.1 |
| 20260831040503 | 15 | 106 | 4.8 | 9.7 | 0.00 | 0.99 | 0.00 | 97 | 1009.0 |
| 20260831040024 | 15 | 110 | 4.8 | 9.7 | 0.00 | 0.99 | 0.00 | 97 | 1009.1 |
| 20260831035525 | 15 | 118 | 6.4 | 11.3 | 0.00 | 0.99 | 0.00 | 97 | 1009.2 |
| 20260831035024 | 15 | 124 | 6.4 | 11.3 | 0.00 | 0.99 | 0.00 | 97 | 1009.1 |
| 20260831034503 | 15 | 128 | 6.4 | 11.3 | 0.03 | 0.99 | 0.00 | 97 | 1009.2 |
| 20260831034003 | 15 | 132 | 4.8 | 11.3 | 0.05 | 0.99 | 0.00 | 97 | 1009.3 |
| 20260831033504 | 15 | 133 | 4.8 | 9.7 | 0.15 | 0.99 | 0.00 | 96 | 1009.5 |
| 20260831033003 | 15 | 131 | 3.2 | 9.7 | 0.36 | 0.99 | 0.00 | 96 | 1009.6 |
| 20260831032503 | 15 | 124 | 3.2 | 8.0 | 0.66 | 0.99 | 0.00 | 96 | 1009.8 |
| 20260831032024 | 15 | 117 | 3.2 | 8.0 | 0.79 | 0.99 | 0.00 | 96 | 1009.7 |
| 20260831031524 | 15 | 116 | 1.6 | 6.4 | 0.94 | 0.99 | 0.00 | 96 | 1009.7 |
| 20260831031003 | 15 | 121 | 3.2 | 6.4 | 0.99 | 0.99 | 0.00 | 96 | 1009.8 |
| 20260831030503 | 15 | 126 | 3.2 | 6.4 | 0.99 | 0.99 | 0.00 | 96 | 1009.8 |
| 20260831030003 | 15 | 126 | 3.2 | 4.8 | 0.99 | 0.99 | 0.00 | 96 | 1009.9 |
| 20260831025503 | 15 | 108 | 3.2 | 6.4 | 0.99 | 0.99 | 0.99 | 96 | 1010.0 |
| 20260831025024 | 15 | 81 | 3.2 | 9.7 | 0.99 | 0.99 | 0.99 | 96 | 1010.1 |
| 20260831024503 | 15 | 82 | 4.8 | 9.7 | 0.99 | 0.99 | 0.99 | 95 | 1010.1 |
| 20260831024003 | 16 | 83 | 3.2 | 8.0 | 0.97 | 0.97 | 0.97 | 95 | 1010.5 |
| 20260831023504 | 16 | 297 | 4.8 | 17.7 | 0.86 | 0.86 | 0.86 | 95 | 1010.7 |
| 20260831023003 | 16 | 284 | 9.7 | 20.9 | 0.64 | 0.64 | 0.64 | 95 | 1011.1 |
| 20260831022503 | 16 | 278 | 12.9 | 29.0 | 0.33 | 0.33 | 0.36 | 93 | 1010.9 |
| 20260831022003 | 16 | 277 | 17.7 | 33.8 | 0.20 | 0.20 | 0.20 | 92 | 1010.7 |
| 20260831021503 | 17 | 272 | 11.3 | 33.8 | 0.05 | 0.05 | 0.05 | 89 | 1010.7 |
| 20260831021003 | 18 | 123 | 4.8 | 9.7 | 0.03 | 0.03 | 0.03 | 90 | 1009.8 |
| 20260831020504 | 18 | 120 | 4.8 | 9.7 | 0.00 | 0.00 | 0.00 | 90 | 1009.7 |
| 20260831020003 | 18 | 123 | 3.2 | 6.4 | 0.00 | 0.00 | 0.00 | 90 | 1009.7 |
| 20260831015503 | 18 | 135 | 3.2 | 9.7 | 0.00 | 0.00 | 0.00 | 90 | 1009.9 |
| 20260831015003 | 18 | 136 | 4.8 | 11.3 | 0.00 | 0.00 | 0.00 | 90 | 1009.9 |
| 20260831014503 | 18 | 136 | 4.8 | 11.3 | 0.00 | 0.00 | 0.00 | 90 | 1010.2 |
| 20260831014024 | 18 | 136 | 4.8 | 11.3 | 0.00 | 0.00 | 0.00 | 90 | 1010.1 |
| 20260831013503 | 18 | 133 | 4.8 | 12.9 | 0.00 | 0.00 | 0.00 | 90 | 1010.2 |
| 20260831013003 | 18 | 136 | 4.8 | 12.9 | 0.00 | 0.00 | 0.00 | 90 | 1010.3 |
| 20260831012524 | 18 | 149 | 3.2 | 12.9 | 0.00 | 0.00 | 0.00 | 90 | 1010.3 |
| 20260831012003 | 18 | 140 | 3.2 | 9.7 | 0.00 | 0.00 | 0.00 | 90 | 1010.5 |
| 20260831011503 | 17 | 135 | 3.2 | 9.7 | 0.00 | 0.00 | 0.00 | 90 | 1010.5 |
| 20260831011003 | 17 | 134 | 3.2 | 8.0 | 0.00 | 0.00 | 0.00 | 90 | 1010.6 |
| 20260831010504 | 17 | 122 | 1.6 | 6.4 | 0.00 | 0.00 | 0.00 | 90 | 1010.5 |
| 20260831010003 | 17 | 121 | 3.2 | 8.0 | 0.00 | 0.00 | 0.00 | 91 | 1010.6 |
| 20260831005503 | 17 | 121 | 3.2 | 8.0 | 0.00 | 0.00 | 0.00 | 91 | 1010.6 |
| 20260831005003 | 17 | 123 | 3.2 | 8.0 | 0.00 | 0.00 | 0.00 | 91 | 1010.8 |
| 20260831004524 | 17 | 121 | 3.2 | 8.0 | 0.00 | 0.00 | 0.00 | 91 | 1010.9 |
| 20260831004003 | 17 | 128 | 4.8 | 11.3 | 0.00 | 0.00 | 0.00 | 91 | 1010.9 |
| 20260831003503 | 17 | 131 | 4.8 | 11.3 | 0.00 | 0.00 | 0.00 | 92 | 1011.0 |
| 20260831003003 | 17 | 128 | 3.2 | 9.7 | 0.00 | 0.00 | 0.00 | 92 | 1011.0 |
| 20260831002524 | 17 | 122 | 3.2 | 9.7 | 0.00 | 0.00 | 0.00 | 91 | 1011.0 |
| 20260831002003 | 17 | 121 | 4.8 | 9.7 | 0.00 | 0.00 | 0.00 | 91 | 1010.9 |
| 20260831001503 | 17 | 129 | 4.8 | 8.0 | 0.00 | 0.00 | 0.00 | 91 | 1011.2 |
| 20260831001003 | 17 | 129 | 4.8 | 8.0 | 0.00 | 0.00 | 0.00 | 91 | 1011.1 |
| 20260831000503 | 17 | 116 | 3.2 | 8.0 | 0.00 | 0.00 | 0.00 | 91 | 1011.0 |
| 20260831000003 | 17 | 102 | 3.2 | 6.4 | 0.00 | 0.00 | 0.00 | 91 | 1011.0 |
| 20260830235503 | 17 | 101 | 3.2 | 4.8 | 0.00 | 0.00 | 0.00 | 91 | 1011.0 |
| 20260830235003 | 17 | 102 | 3.2 | 4.8 | 0.00 | 0.00 | 0.00 | 91 | 1011.0 |
| 20260830234503 | 17 | 105 | 3.2 | 4.8 | 0.00 | 0.00 | 0.00 | 90 | 1011.1 |
| 20260830234003 | 17 | 112 | 3.2 | 6.4 | 0.00 | 0.00 | 0.00 | 90 | 1011.2 |
| 20260830233503 | 17 | 111 | 3.2 | 6.4 | 0.00 | 0.00 | 0.00 | 90 | 1011.2 |
| 20260830233003 | 17 | 107 | 1.6 | 4.8 | 0.00 | 0.00 | 0.00 | 90 | 1011.0 |
| 20260830232503 | 18 | 107 | 1.6 | 3.2 | 0.00 | 0.00 | 0.00 | 90 | 1011.2 |
| 20260830232024 | 18 | 109 | 1.6 | 3.2 | 0.00 | 0.00 | 0.00 | 89 | 1011.2 |
| 20260830231503 | 18 | 114 | 1.6 | 3.2 | 0.00 | 0.00 | 0.00 | 88 | 1011.4 |
| 20260830231003 | 18 | 117 | 1.6 | 4.8 | 0.00 | 0.00 | 0.00 | 88 | 1011.5 |
| 20260830230503 | 18 | 119 | 1.6 | 4.8 | 0.00 | 0.00 | 0.00 | 89 | 1011.5 |
| 20260830230003 | 18 | 121 | 1.6 | 4.8 | 0.00 | 0.00 | 0.00 | 89 | 1011.4 |
| 20260830225503 | 18 | 0 | 0.0 | 0.0 | 0.00 | 0.00 | 0.00 | 88 | 1011.2 |
| 20260830225003 | 18 | 0 | 0.0 | 0.0 | 0.00 | 0.00 | 0.00 | 88 | 1011.4 |
| 20260830224503 | 18 | 0 | 0.0 | 0.0 | 0.00 | 0.00 | 0.00 | 87 | 1011.2 |
| 20260830224003 | 18 | 0 | 0.0 | 0.0 | 0.00 | 0.00 | 0.00 | 87 | 1011.4 |
| 20260830223524 | 19 | 0 | 0.0 | 0.0 | 0.00 | 0.00 | 0.00 | 86 | 1011.4 |
| 20260830223003 | 19 | 0 | 0.0 | 0.0 | 0.00 | 0.00 | 0.00 | 86 | 1011.4 |
| 20260830222503 | 19 | 0 | 0.0 | 0.0 | 0.00 | 0.00 | 0.00 | 85 | 1011.5 |
| 20260830222003 | 20 | 272 | 0.0 | 3.2 | 0.00 | 0.00 | 0.00 | 84 | 1011.5 |
| 20260830221503 | 20 | 284 | 1.6 | 6.4 | 0.00 | 0.00 | 0.00 | 83 | 1011.6 |
| 20260830221004 | 20 | 287 | 4.8 | 9.7 | 0.00 | 0.00 | 0.00 | 84 | 1011.7 |
| 20260830220503 | 20 | 285 | 6.4 | 11.3 | 0.00 | 0.00 | 0.00 | 84 | 1011.7 |
| 20260830220003 | 20 | 286 | 6.4 | 11.3 | 0.00 | 0.00 | 0.00 | 84 | 1011.5 |
| 20260830215524 | 20 | 286 | 8.0 | 16.1 | 0.00 | 0.00 | 0.00 | 84 | 1011.6 |
| 20260830215003 | 20 | 280 | 9.7 | 16.1 | 0.00 | 0.00 | 0.00 | 84 | 1011.5 |
| 20260830214503 | 20 | 277 | 9.7 | 17.7 | 0.00 | 0.00 | 0.00 | 84 | 1011.5 |
| 20260830214003 | 20 | 276 | 9.7 | 17.7 | 0.00 | 0.00 | 0.00 | 83 | 1011.6 |
| 20260830213503 | 20 | 274 | 11.3 | 22.5 | 0.00 | 0.00 | 0.00 | 84 | 1011.6 |
| 20260830213003 | 20 | 254 | 12.9 | 22.5 | 0.00 | 0.00 | 0.00 | 81 | 1011.6 |
| 20260830212503 | 21 | 225 | 11.3 | 20.9 | 0.00 | 0.00 | 0.00 | 77 | 1011.6 |
| 20260830212003 | 21 | 215 | 11.3 | 20.9 | 0.00 | 0.00 | 0.00 | 75 | 1011.4 |
| 20260830211503 | 21 | 212 | 11.3 | 20.9 | 0.00 | 0.00 | 0.00 | 73 | 1011.5 |
| 20260830211003 | 21 | 206 | 11.3 | 19.3 | 0.00 | 0.00 | 0.00 | 72 | 1011.5 |
| 20260830210524 | 22 | 209 | 12.9 | 22.5 | 0.00 | 0.00 | 0.00 | 71 | 1011.4 |
| 20260830210003 | 22 | 210 | 11.3 | 22.5 | 0.00 | 0.00 | 0.00 | 70 | 1011.3 |
| 20260830205503 | 22 | 206 | 11.3 | 19.3 | 0.00 | 0.00 | 0.00 | 70 | 1011.2 |
| 20260830205003 | 22 | 208 | 11.3 | 19.3 | 0.00 | 0.00 | 0.00 | 68 | 1011.4 |
| 20260830204524 | 22 | 206 | 9.7 | 19.3 | 0.00 | 0.00 | 0.00 | 67 | 1011.4 |
| 20260830204003 | 22 | 205 | 8.0 | 20.9 | 0.00 | 0.00 | 0.00 | 66 | 1011.3 |
| 20260830203506 | 22 | 207 | 6.4 | 20.9 | 0.00 | 0.00 | 0.00 | 64 | 1011.5 |
| 20260830203003 | 23 | 208 | 6.4 | 16.1 | 0.00 | 0.00 | 0.00 | 62 | 1011.4 |
| 20260830202503 | 23 | 210 | 8.0 | 17.7 | 0.00 | 0.00 | 0.00 | 62 | 1011.5 |
| 20260830202003 | 23 | 213 | 6.4 | 17.7 | 0.00 | 0.00 | 0.00 | 62 | 1011.7 |
| 20260830201524 | 23 | 201 | 8.0 | 17.7 | 0.00 | 0.00 | 0.00 | 62 | 1011.7 |
| 20260830201003 | 23 | 190 | 4.8 | 17.7 | 0.00 | 0.00 | 0.00 | 64 | 1011.7 |
| 20260830200503 | 22 | 190 | 3.2 | 17.7 | 0.00 | 0.00 | 0.00 | 65 | 1011.7 |
| 20260830200003 | 22 | 188 | 6.4 | 19.3 | 0.00 | 0.00 | 0.00 | 66 | 1011.7 |
| 20260830195503 | 22 | 192 | 8.0 | 19.3 | 0.00 | 0.00 | 0.00 | 65 | 1011.7 |
| 20260830195003 | 22 | 195 | 6.4 | 14.5 | 0.00 | 0.00 | 0.00 | 65 | 1011.8 |
| 20260830194503 | 21 | 194 | 6.4 | 16.1 | 0.00 | 0.00 | 0.00 | 66 | 1011.8 |
| 20260830194003 | 21 | 195 | 6.4 | 16.1 | 0.00 | 0.00 | 0.00 | 65 | 1011.8 |
| 20260830193503 | 21 | 194 | 6.4 | 14.5 | 0.00 | 0.00 | 0.00 | 66 | 1011.9 |
| 20260830193003 | 21 | 188 | 4.8 | 14.5 | 0.00 | 0.00 | 0.00 | 66 | 1011.7 |
| 20260830192503 | 22 | 184 | 4.8 | 12.9 | 0.00 | 0.00 | 0.00 | 66 | 1011.9 |
| 20260830192003 | 21 | 190 | 6.4 | 16.1 | 0.00 | 0.00 | 0.00 | 67 | 1011.8 |
| 20260830191524 | 21 | 197 | 6.4 | 16.1 | 0.00 | 0.00 | 0.00 | 66 | 1011.8 |
| 20260830191003 | 21 | 198 | 8.0 | 20.9 | 0.00 | 0.00 | 0.00 | 66 | 1011.8 |
| 20260830190503 | 21 | 195 | 8.0 | 20.9 | 0.00 | 0.00 | 0.00 | 66 | 1011.9 |
| 20260830190003 | 21 | 195 | 6.4 | 14.5 | 0.00 | 0.00 | 0.00 | 67 | 1011.9 |
| 20260830185503 | 21 | 196 | 6.4 | 19.3 | 0.00 | 0.00 | 0.00 | 67 | 1012.0 |
| 20260830185003 | 21 | 201 | 8.0 | 20.9 | 0.00 | 0.00 | 0.00 | 66 | 1012.0 |
| 20260830184503 | 21 | 201 | 9.7 | 20.9 | 0.00 | 0.00 | 0.00 | 66 | 1012.0 |
| 20260830184003 | 21 | 194 | 9.7 | 20.9 | 0.00 | 0.00 | 0.00 | 66 | 1012.1 |
| 20260830183503 | 21 | 192 | 9.7 | 20.9 | 0.00 | 0.00 | 0.00 | 66 | 1012.0 |
| 20260830183003 | 21 | 196 | 8.0 | 20.9 | 0.00 | 0.00 | 0.00 | 66 | 1012.1 |
| 20260830182525 | 21 | 200 | 8.0 | 20.9 | 0.00 | 0.00 | 0.00 | 66 | 1012.1 |
| 20260830182003 | 21 | 204 | 9.7 | 22.5 | 0.00 | 0.00 | 0.00 | 67 | 1012.2 |
| 20260830181524 | 21 | 201 | 9.7 | 24.1 | 0.00 | 0.00 | 0.00 | 66 | 1012.3 |
| 20260830181024 | 21 | 202 | 11.3 | 25.7 | 0.00 | 0.00 | 0.00 | 65 | 1012.4 |
| 20260830180503 | 22 | 202 | 12.9 | 25.7 | 0.00 | 0.00 | 0.00 | 64 | 1012.4 |
| 20260830180024 | 22 | 203 | 12.9 | 22.5 | 0.00 | 0.00 | 0.00 | 63 | 1012.5 |
| 20260830175503 | 22 | 210 | 14.5 | 32.2 | 0.00 | 0.00 | 0.00 | 64 | 1012.6 |
| 20260830175003 | 22 | 207 | 12.9 | 32.2 | 0.00 | 0.00 | 0.00 | 62 | 1012.6 |
| 20260830174503 | 22 | 205 | 11.3 | 25.7 | 0.00 | 0.00 | 0.00 | 62 | 1012.6 |
| 20260830174003 | 22 | 212 | 11.3 | 25.7 | 0.00 | 0.00 | 0.00 | 62 | 1012.7 |
| 20260830173503 | 22 | 207 | 12.9 | 29.0 | 0.00 | 0.00 | 0.00 | 63 | 1012.7 |
| 20260830173003 | 22 | 203 | 12.9 | 29.0 | 0.00 | 0.00 | 0.00 | 61 | 1012.7 |
| 20260830172503 | 22 | 208 | 12.9 | 24.1 | 0.00 | 0.00 | 0.00 | 62 | 1012.7 |
| 20260830172003 | 22 | 208 | 14.5 | 30.6 | 0.00 | 0.00 | 0.00 | 61 | 1012.8 |
| 20260830171524 | 22 | 215 | 17.7 | 30.6 | 0.00 | 0.00 | 0.00 | 61 | 1012.7 |
| 20260830171003 | 23 | 221 | 16.1 | 30.6 | 0.00 | 0.00 | 0.00 | 64 | 1013.0 |
| 20260830170524 | 23 | 217 | 17.7 | 35.4 | 0.00 | 0.00 | 0.00 | 63 | 1013.0 |
| 20260830170003 | 23 | 217 | 17.7 | 35.4 | 0.00 | 0.00 | 0.00 | 62 | 1013.1 |
| 20260830165503 | 22 | 221 | 16.1 | 30.6 | 0.00 | 0.00 | 0.00 | 62 | 1013.2 |
| 20260830165003 | 22 | 222 | 16.1 | 29.0 | 0.00 | 0.00 | 0.00 | 61 | 1013.2 |
| 20260830164524 | 22 | 221 | 16.1 | 29.0 | 0.00 | 0.00 | 0.00 | 62 | 1013.3 |
| 20260830164024 | 22 | 219 | 14.5 | 27.4 | 0.00 | 0.00 | 0.00 | 62 | 1013.4 |
| 20260830163503 | 22 | 217 | 14.5 | 27.4 | 0.00 | 0.00 | 0.00 | 62 | 1013.4 |
| 20260830163003 | 22 | 220 | 14.5 | 27.4 | 0.00 | 0.00 | 0.00 | 63 | 1013.5 |
| 20260830162503 | 22 | 222 | 16.1 | 27.4 | 0.00 | 0.00 | 0.00 | 62 | 1013.7 |
| 20260830162024 | 22 | 224 | 16.1 | 30.6 | 0.00 | 0.00 | 0.00 | 62 | 1013.7 |
| 20260830161503 | 22 | 225 | 16.1 | 30.6 | 0.00 | 0.00 | 0.00 | 62 | 1013.9 |
| 20260830161004 | 22 | 223 | 16.1 | 29.0 | 0.00 | 0.00 | 0.00 | 65 | 1013.8 |
| 20260830160503 | 22 | 222 | 16.1 | 30.6 | 0.00 | 0.00 | 0.00 | 65 | 1013.9 |
| 20260830160024 | 21 | 220 | 16.1 | 30.6 | 0.00 | 0.00 | 0.00 | 67 | 1014.0 |
| 20260830155503 | 21 | 220 | 14.5 | 25.7 | 0.00 | 0.00 | 0.00 | 66 | 1014.1 |
| 20260830155024 | 21 | 217 | 14.5 | 27.4 | 0.00 | 0.00 | 0.00 | 69 | 1014.2 |
| 20260830154503 | 21 | 218 | 14.5 | 27.4 | 0.00 | 0.00 | 0.00 | 68 | 1014.1 |
| 20260830154003 | 22 | 222 | 12.9 | 24.1 | 0.00 | 0.00 | 0.00 | 69 | 1014.2 |
| 20260830153503 | 21 | 222 | 12.9 | 22.5 | 0.00 | 0.00 | 0.00 | 71 | 1014.1 |
| 20260830153003 | 21 | 221 | 14.5 | 27.4 | 0.00 | 0.00 | 0.00 | 70 | 1014.3 |
| 20260830152524 | 21 | 221 | 14.5 | 27.4 | 0.00 | 0.00 | 0.00 | 69 | 1014.4 |
| 20260830152003 | 21 | 222 | 12.9 | 22.5 | 0.00 | 0.00 | 0.00 | 68 | 1014.5 |
| 20260830151503 | 21 | 224 | 14.5 | 22.5 | 0.00 | 0.00 | 0.00 | 69 | 1014.5 |
| 20260830151003 | 21 | 225 | 14.5 | 24.1 | 0.00 | 0.00 | 0.00 | 70 | 1014.6 |
| 20260830150503 | 21 | 224 | 16.1 | 27.4 | 0.00 | 0.00 | 0.00 | 70 | 1014.7 |
| 20260830150003 | 21 | 224 | 16.1 | 27.4 | 0.00 | 0.00 | 0.00 | 70 | 1014.7 |